Thunder radar more information blitzortung!


Radar de pluja more information rain snow radar


Visita la nostra xarxa de llocs de meteo:

Template documentation
and downloads

And another site



No particular awareness of the weather is required.    There are no Weather-warnings

Pagina Historial Weather Underground text

Diari Resum Desembre 6, 2017 Unitats:  Imperial    Mètric   Tant
« Previous Dia
SegĂźent Dia »
Diari Setmana Mensual Anual Personalitzada
  Maxima: Minima: Media:
Temperatura: TemperatureC °F -0.4 °F 6.7 °F
Punt de rosada: DewpointC °F -5.8 °F -0 °F
Humitat: Humidity % 52 % 63 %
Wind Speed: WindSpeedKMH mph 0.0 mph 2.7 mph
RĂ fegues de vent: WindSpeedGustKMH mph - -
Vent:- - South
Pression baro: PressurehPa in 1030.0 in -
Precipitacions: 0.0 in    
Historical Graphs
 
 
Dades de taula per Desembre 6, 2017
Temps Temperatura Punt de rosada Pression baro Vent Wind Speed RĂ fegues de vent Humitat Rainfall Rate (Hourly)
TemperatureC °F DewpointC °F PressurehPa in Calm     Humidity % HourlyPrecipMM in
00:01 2.7 °F -4.8 °F 1034.8 in Calm     58 % 0.0 in
00:05 0.1 °F -5.5 °F 1033.7 in Calm   3.2 mph 66 % 0.0 in
00:06 2.6 °F -4.6 °F 1034.8 in Calm     59 % 0.0 in
00:11 2.6 °F -4.6 °F 1034.8 in Calm     59 % 0.0 in
00:15 0.0 °F -5.8 °F 1033.7 in WSW 1.6 mph 3.2 mph 65 % 0.0 in
00:25 0.0 °F -5.6 °F 1033.7 in WSW 1.6 mph 3.2 mph 66 % 0.0 in
00:35 0.0 °F -5.6 °F 1033.7 in WSW 1.6 mph 3.2 mph 66 % 0.0 in
00:45 0.0 °F -5.6 °F 1033.7 in WSW 1.6 mph 3.2 mph 66 % 0.0 in
00:55 0.0 °F -5.4 °F 1034.8 in Calm   1.6 mph 67 % 0.0 in
01:05 0.0 °F -5.4 °F 1034.8 in Calm   1.6 mph 67 % 0.0 in
01:15 -0.1 °F -5.5 °F 1034.8 in Calm     67 % 0.0 in
01:25 -0.1 °F -5.5 °F 1034.8 in Calm     67 % 0.0 in
01:35 -0.1 °F -5.3 °F 1034.8 in Calm     68 % 0.0 in
01:45 -0.2 °F -5.6 °F 1034.8 in SW 1.6 mph 3.2 mph 67 % 0.0 in
01:55 -0.4 °F -5.8 °F 1034.8 in Calm   3.2 mph 67 % 0.0 in
02:05 -0.3 °F -5.5 °F 1034.8 in Calm     68 % 0.0 in
02:15 -0.4 °F -5.6 °F 1034.8 in Calm   1.6 mph 68 % 0.0 in
02:25 -0.3 °F -5.5 °F 1034.8 in Calm     68 % 0.0 in
02:35 0.0 °F -5.4 °F 1034.8 in West 1.6 mph 3.2 mph 67 % 0.0 in
02:45 0.1 °F -5.1 °F 1034.8 in WSW 1.6 mph 3.2 mph 68 % 0.0 in
02:55 0.4 °F -5.0 °F 1034.8 in WSW 1.6 mph 3.2 mph 67 % 0.0 in
03:05 0.8 °F -4.6 °F 1034.8 in SW 1.6 mph 3.2 mph 67 % 0.0 in
03:15 1.8 °F -3.5 °F 1034.8 in Calm     68 % 0.0 in
03:25 2.5 °F -3.0 °F 1034.8 in Calm   1.6 mph 67 % 0.0 in
03:35 3.0 °F -2.7 °F 1034.8 in Calm     66 % 0.0 in
03:55 3.8 °F -2.4 °F 1034.8 in Calm   3.2 mph 64 % 0.0 in
04:05 3.5 °F -2.9 °F 1034.8 in ESE 1.6 mph 3.2 mph 63 % 0.0 in
04:15 4.1 °F -2.3 °F 1034.8 in East 1.6 mph 3.2 mph 63 % 0.0 in
04:35 4.7 °F -1.9 °F 1034.8 in SSE 1.6 mph 3.2 mph 62 % 0.0 in
04:45 4.9 °F -2.0 °F 1034.8 in ESE 3.2 mph 3.2 mph 61 % 0.0 in
04:55 5.1 °F -2.3 °F 1034.8 in ENE 3.2 mph 4.8 mph 59 % 0.0 in
05:05 5.5 °F -2.1 °F 1034.8 in ENE 1.6 mph 3.2 mph 58 % 0.0 in
11:08 5.7 °F -1.9 °F 1034.8 in NNW 3.2 mph 3.2 mph 58 % 0.0 in
11:13 6.0 °F -1.7 °F 1034.8 in NE 3.7 mph 3.7 mph 58 % 0.0 in
11:18 6.1 °F -1.8 °F 1034.8 in NE 7.4 mph 7.4 mph 57 % 0.0 in
11:19 6.1 °F -1.8 °F 1034.8 in NE 5.6 mph 5.6 mph 57 % 0.0 in
11:24 6.2 °F -1.7 °F 1034.8 in ENE 4.2 mph 4.2 mph 57 % 0.0 in
11:29 6.4 °F -1.8 °F 1034.8 in NE 4.2 mph 4.2 mph 56 % 0.0 in
11:34 6.6 °F -1.6 °F 1034.8 in ENE 3.7 mph 3.7 mph 56 % 0.0 in
11:39 6.9 °F -1.3 °F 1034.8 in ENE 4.2 mph 4.2 mph 56 % 0.0 in
11:44 7.2 °F -1.0 °F 1033.7 in East 3.7 mph 3.7 mph 56 % 0.0 in
11:49 7.3 °F -0.9 °F 1033.7 in NNE 3.7 mph 3.7 mph 56 % 0.0 in
11:59 7.7 °F -0.8 °F 1033.7 in East 3.7 mph 3.7 mph 55 % 0.0 in
12:04 8.1 °F -0.4 °F 1033.7 in ENE 2.6 mph 2.6 mph 55 % 0.0 in
12:09 8.2 °F -0.3 °F 1033.7 in ENE 3.7 mph 3.7 mph 55 % 0.0 in
12:14 8.2 °F -0.6 °F 1033.7 in East 3.7 mph 3.7 mph 54 % 0.0 in
12:19 8.5 °F -0.3 °F 1033.7 in ENE 3.7 mph 3.7 mph 54 % 0.0 in
12:24 8.7 °F -0.1 °F 1033.7 in NNW 1.9 mph 1.9 mph 54 % 0.0 in
12:29 8.7 °F -0.3 °F 1033.7 in NE 5.6 mph 5.6 mph 53 % 0.0 in
12:34 8.8 °F -0.3 °F 1033.7 in NE 3.7 mph 3.7 mph 53 % 0.0 in
12:39 9.2 °F 0.1 °F 1033.7 in NNW 3.7 mph 3.7 mph 53 % 0.0 in
12:44 9.3 °F 0.2 °F 1033.7 in NNE 3.9 mph 3.9 mph 53 % 0.0 in
12:49 9.5 °F 0.4 °F 1033.7 in ENE 3.7 mph 3.7 mph 53 % 0.0 in
12:54 9.6 °F 0.5 °F 1033.7 in NE 2.6 mph 2.6 mph 53 % 0.0 in
12:59 9.8 °F 0.7 °F 1032.7 in ENE 3.7 mph 3.7 mph 53 % 0.0 in
13:04 10.0 °F 0.8 °F 1032.7 in NE 7.4 mph 7.4 mph 53 % 0.0 in
13:09 10.3 °F 1.1 °F 1032.7 in NNE 5.6 mph 5.6 mph 53 % 0.0 in
13:14 10.4 °F 1.2 °F 1032.7 in ENE 3.7 mph 3.7 mph 53 % 0.0 in
13:19 10.7 °F 1.2 °F 1032.7 in ENE 3.7 mph 3.7 mph 52 % 0.0 in
13:24 10.7 °F 1.2 °F 1032.7 in ENE 5.0 mph 5.0 mph 52 % 0.0 in
13:29 10.7 °F 1.2 °F 1032.1 in SE 3.7 mph 3.7 mph 52 % 0.0 in
13:34 11.0 °F 1.8 °F 1032.1 in NNW 3.7 mph 3.7 mph 53 % 0.0 in
13:44 11.1 °F 1.9 °F 1032.1 in North 3.9 mph 3.9 mph 53 % 0.0 in
13:49 11.2 °F 1.7 °F 1032.1 in NNE 3.7 mph 3.7 mph 52 % 0.0 in
13:54 11.4 °F 1.9 °F 1032.1 in NNE 3.7 mph 3.7 mph 52 % 0.0 in
13:59 11.4 °F 1.9 °F 1032.1 in NNW 1.9 mph   52 % 0.0 in
14:04 11.6 °F 2.3 °F 1032.1 in ESE 3.7 mph 3.7 mph 53 % 0.0 in
14:09 11.9 °F 2.9 °F 1032.1 in SW 5.3 mph   54 % 0.0 in
14:14 12.0 °F 2.9 °F 1032.1 in WSW 7.4 mph 7.4 mph 54 % 0.0 in
14:19 12.2 °F 3.2 °F 1032.1 in SSW 5.6 mph 5.6 mph 54 % 0.0 in
14:24 12.3 °F 3.2 °F 1032.1 in WSW 3.7 mph 3.7 mph 54 % 0.0 in
14:29 12.5 °F 3.4 °F 1032.1 in NW 7.4 mph 7.4 mph 54 % 0.0 in
14:34 12.6 °F 3.6 °F 1032.1 in WSW 7.4 mph 7.4 mph 54 % 0.0 in
14:39 12.8 °F 3.7 °F 1032.1 in NW 5.6 mph 5.6 mph 54 % 0.0 in
14:44 12.8 °F 3.7 °F 1032.1 in SSE 3.7 mph 4.7 mph 54 % 0.0 in
14:49 12.9 °F 3.8 °F 1032.1 in SSW 9.0 mph 9.0 mph 54 % 0.0 in
14:54 12.8 °F 3.4 °F 1032.1 in SW 3.7 mph 3.7 mph 53 % 0.0 in
14:59 12.7 °F 3.3 °F 1032.1 in ENE 3.7 mph 4.7 mph 53 % 0.0 in
15:04 12.9 °F 3.6 °F 1032.1 in ESE 5.8 mph 5.8 mph 53 % 0.0 in
15:09 12.7 °F 3.3 °F 1032.1 in NE 3.7 mph 3.7 mph 53 % 0.0 in
15:14 13.3 °F 3.9 °F 1032.1 in WNW 5.6 mph 5.6 mph 53 % 0.0 in
15:19 13.6 °F 4.2 °F 1032.1 in West 9.3 mph 9.3 mph 53 % 0.0 in
15:24 13.9 °F 4.4 °F 1032.1 in SSW 9.3 mph 9.3 mph 53 % 0.0 in
15:29 14.0 °F 4.6 °F 1032.1 in SSW 7.4 mph 7.4 mph 53 % 0.0 in
15:34 14.0 °F 4.6 °F 1032.1 in South 7.4 mph 7.4 mph 53 % 0.0 in
15:39 14.0 °F 4.6 °F 1032.1 in SSW 5.8 mph 5.8 mph 53 % 0.0 in
15:44 13.8 °F 4.4 °F 1030.7 in SSW 11.1 mph 11.1 mph 53 % 0.0 in
15:49 13.7 °F 4.3 °F 1030.7 in SW 9.3 mph 9.3 mph 53 % 0.0 in
15:54 13.8 °F 4.7 °F 1030.7 in SSW 7.4 mph 7.4 mph 54 % 0.0 in
15:59 13.8 °F 4.7 °F 1030.7 in SSW 3.7 mph 3.7 mph 54 % 0.0 in
16:04 13.8 °F 4.7 °F 1030.7 in WSW 7.4 mph 7.4 mph 54 % 0.0 in
16:09 13.7 °F 4.6 °F 1030.7 in SW 7.6 mph 7.6 mph 54 % 0.0 in
16:14 13.6 °F 4.4 °F 1030.7 in SW 7.4 mph 7.4 mph 54 % 0.0 in
16:19 13.5 °F 4.1 °F 1030.7 in South 9.3 mph 9.3 mph 53 % 0.0 in
16:24 13.3 °F 3.9 °F 1030.7 in WSW 9.3 mph 9.3 mph 53 % 0.0 in
16:29 13.3 °F 3.9 °F 1030.7 in SW 5.6 mph 5.6 mph 53 % 0.0 in
16:34 13.2 °F 4.1 °F 1030.7 in SW 5.6 mph 5.6 mph 54 % 0.0 in
16:39 13.1 °F 4.0 °F 1030.7 in SSW 9.3 mph 9.3 mph 54 % 0.0 in
16:44 13.0 °F 3.9 °F 1030.7 in SW 5.6 mph 5.6 mph 54 % 0.0 in
16:49 12.9 °F 3.8 °F 1030.7 in SSW 5.6 mph 5.6 mph 54 % 0.0 in
16:54 12.7 °F 3.6 °F 1030.7 in WSW 5.6 mph 5.6 mph 54 % 0.0 in
16:59 12.6 °F 3.6 °F 1030.7 in SW 9.3 mph 9.3 mph 54 % 0.0 in
17:04 12.3 °F 3.2 °F 1030.7 in SSW 6.9 mph 6.9 mph 54 % 0.0 in
17:09 12.1 °F 3.1 °F 1030.7 in SW 7.4 mph 7.4 mph 54 % 0.0 in
17:14 11.8 °F 2.8 °F 1030.7 in West 5.6 mph 5.6 mph 54 % 0.0 in
17:19 11.7 °F 2.7 °F 1030.7 in SSW 4.2 mph 4.2 mph 54 % 0.0 in
17:24 11.5 °F 2.5 °F 1030.7 in WSW 3.7 mph 3.7 mph 54 % 0.0 in
17:29 11.3 °F 2.6 °F 1030.7 in SW 7.4 mph 7.4 mph 55 % 0.0 in
17:34 11.1 °F 2.4 °F 1030.7 in WSW 3.7 mph 3.7 mph 55 % 0.0 in
17:39 10.9 °F 2.2 °F 1030.7 in SW 5.6 mph 5.6 mph 55 % 0.0 in
17:44 10.8 °F 2.1 °F 1030.7 in SW 3.7 mph 3.7 mph 55 % 0.0 in
17:49 10.6 °F 2.2 °F 1030.7 in WSW 3.7 mph 3.7 mph 56 % 0.0 in
17:54 10.4 °F 2.0 °F 1030.7 in West 1.9 mph 1.9 mph 56 % 0.0 in
17:59 10.3 °F 2.2 °F 1030.7 in WSW 1.9 mph 1.9 mph 57 % 0.0 in
18:04 10.1 °F 1.9 °F 1030.7 in WSW 2.6 mph 2.6 mph 57 % 0.0 in
18:09 10.0 °F 2.1 °F 1030.7 in WSW 1.9 mph 2.3 mph 58 % 0.0 in
18:15 2.9 °F -1.8 °F 1032.1 in Calm   1.6 mph 71 % 0.0 in
18:19 9.7 °F 2.1 °F 1030.7 in WSW 1.9 mph   59 % 0.0 in
18:24 9.5 °F 2.1 °F 1030.7 in WSW 1.9 mph   60 % 0.0 in
18:25 2.8 °F -1.9 °F 1032.1 in NNE 1.6 mph 1.6 mph 71 % 0.0 in
18:29 9.4 °F 2.0 °F 1030.7 in WSW 1.9 mph   60 % 0.0 in
18:34 9.2 °F 2.1 °F 1030.7 in Calm     61 % 0.0 in
18:35 2.8 °F -1.8 °F 1032.7 in NNE 1.6 mph 3.2 mph 72 % 0.0 in
18:39 9.1 °F 2.2 °F 1030.7 in West 1.9 mph 1.9 mph 62 % 0.0 in
18:44 9.0 °F 2.1 °F 1030.7 in WSW 2.6 mph 2.6 mph 62 % 0.0 in
18:45 2.7 °F -1.8 °F 1032.7 in Calm   3.2 mph 72 % 0.0 in
18:49 8.9 °F 2.2 °F 1030.7 in Calm     63 % 0.0 in
18:54 8.7 °F 2.1 °F 1030.7 in WSW 3.7 mph 3.7 mph 63 % 0.0 in
18:55 2.6 °F -1.9 °F 1032.1 in Calm     72 % 0.0 in
18:59 8.8 °F 2.3 °F 1030.7 in SW 3.7 mph 3.7 mph 64 % 0.0 in
19:04 8.7 °F 2.3 °F 1030.7 in WSW 3.5 mph 3.5 mph 64 % 0.0 in
19:05 2.3 °F -2.4 °F 1032.1 in NNW 1.6 mph 3.2 mph 71 % 0.0 in
19:09 8.7 °F 2.3 °F 1030.7 in SW 1.9 mph 1.9 mph 64 % 0.0 in
19:14 8.7 °F 2.3 °F 1030.7 in SW 3.7 mph 3.7 mph 64 % 0.0 in
19:15 2.2 °F -2.5 °F 1032.1 in Calm   1.6 mph 71 % 0.0 in
19:19 8.6 °F 2.4 °F 1030.7 in WSW 1.9 mph 1.9 mph 65 % 0.0 in
19:24 8.5 °F 2.3 °F 1030.7 in WSW 3.7 mph 3.7 mph 65 % 0.0 in
19:25 2.2 °F -2.5 °F 1030.7 in WNW 1.6 mph 3.2 mph 71 % 0.0 in
19:29 8.5 °F 2.3 °F 1032.1 in WSW 1.9 mph 1.9 mph 65 % 0.0 in
19:34 8.4 °F 2.4 °F 1032.1 in Calm     66 % 0.0 in
19:35 2.2 °F -2.3 °F 1032.1 in Calm   3.2 mph 72 % 0.0 in
19:39 8.3 °F 2.3 °F 1032.1 in West 2.3 mph 2.3 mph 66 % 0.0 in
19:44 8.2 °F 2.4 °F 1032.1 in Calm     67 % 0.0 in
19:45 2.2 °F -2.3 °F 1032.1 in WSW 1.6 mph 3.2 mph 72 % 0.0 in
19:49 8.1 °F 2.3 °F 1032.1 in SW 1.9 mph 1.9 mph 67 % 0.0 in
19:54 8.0 °F 2.2 °F 1032.1 in WSW 1.9 mph 1.9 mph 67 % 0.0 in
19:55 2.1 °F -2.4 °F 1030.7 in Calm   1.6 mph 72 % 0.0 in
19:59 8.0 °F 2.2 °F 1032.1 in West 2.6 mph 2.6 mph 67 % 0.0 in
20:04 7.9 °F 2.2 °F 1032.1 in West 3.7 mph 3.7 mph 67 % 0.0 in
20:05 2.2 °F -2.3 °F 1030.7 in Calm     72 % 0.0 in
20:09 7.7 °F 1.6 °F 1032.1 in West 3.9 mph 4.2 mph 65 % 0.0 in
20:14 7.7 °F 1.6 °F 1032.1 in WSW 3.7 mph 3.7 mph 65 % 0.0 in
20:15 2.2 °F -2.5 °F 1030.7 in West 1.6 mph 1.6 mph 71 % 0.0 in
20:19 7.7 °F 1.6 °F 1032.1 in West 1.9 mph   65 % 0.0 in
20:24 7.5 °F 1.6 °F 1032.1 in WSW 3.7 mph   66 % 0.0 in
20:25 2.2 °F -2.3 °F 1030.7 in Calm     72 % 0.0 in
20:29 7.4 °F 1.4 °F 1032.1 in Calm     66 % 0.0 in
20:34 7.2 °F 1.3 °F 1032.1 in ENE 3.2 mph 3.2 mph 66 % 0.0 in
20:35 2.2 °F -2.2 °F 1030.7 in Calm     73 % 0.0 in
20:39 6.9 °F 1.2 °F 1032.1 in Calm     67 % 0.0 in
20:44 6.6 °F 0.9 °F 1032.1 in ENE 3.7 mph 3.7 mph 67 % 0.0 in
20:45 2.4 °F -1.9 °F 1030.7 in Calm     73 % 0.0 in
20:49 6.5 °F 0.8 °F 1032.1 in Calm     67 % 0.0 in
20:54 6.5 °F 1.0 °F 1032.1 in ENE 1.9 mph 1.9 mph 68 % 0.0 in
20:55 2.5 °F -1.7 °F 1030.7 in Calm   3.2 mph 74 % 0.0 in
20:59 6.4 °F 0.9 °F 1032.1 in ENE 3.7 mph 3.7 mph 68 % 0.0 in
21:04 6.3 °F 0.8 °F 1032.1 in Calm     68 % 0.0 in
21:05 2.4 °F -1.9 °F 1030.7 in Calm   1.6 mph 73 % 0.0 in
21:09 6.0 °F 0.6 °F 1032.1 in WSW 3.9 mph   68 % 0.0 in
21:14 5.8 °F 0.2 °F 1032.1 in West 1.9 mph   67 % 0.0 in
21:15 2.3 °F -1.9 °F 1030.7 in Calm     74 % 0.0 in
21:19 5.6 °F -0.1 °F 1032.1 in West 2.3 mph 2.3 mph 67 % 0.0 in
21:24 5.5 °F -0.2 °F 1032.1 in Calm     67 % 0.0 in
21:25 2.2 °F -2.2 °F 1030.7 in WNW 3.2 mph 3.2 mph 73 % 0.0 in
21:29 5.3 °F -0.1 °F 1032.1 in Calm     68 % 0.0 in
21:34 5.2 °F -0.4 °F 1032.1 in Calm     67 % 0.0 in
21:35 2.1 °F -2.2 °F 1030.7 in Calm   3.2 mph 73 % 0.0 in
21:39 5.0 °F -0.6 °F 1032.1 in Calm     67 % 0.0 in
21:44 5.0 °F -0.6 °F 1032.1 in Calm     67 % 0.0 in
21:45 2.3 °F -2.1 °F 1030.7 in NW 1.6 mph 1.6 mph 73 % 0.0 in
21:49 5.1 °F -0.6 °F 1032.1 in West 1.9 mph 1.9 mph 67 % 0.0 in
21:51 5.1 °F -0.6 °F 1032.1 in West 1.9 mph   67 % 0.0 in
21:55 2.2 °F -1.9 °F 1030.7 in Calm   1.6 mph 74 % 0.0 in
21:56 5.1 °F -0.6 °F 1032.1 in Calm     67 % 0.0 in
22:01 5.2 °F -0.2 °F 1032.1 in Calm     68 % 0.0 in
22:05 2.1 °F -2.1 °F 1030.7 in Calm     74 % 0.0 in
22:06 5.2 °F -0.1 °F 1032.1 in WNW 2.6 mph 2.6 mph 69 % 0.0 in
22:11 5.0 °F -0.2 °F 1032.1 in ENE 3.7 mph 3.7 mph 69 % 0.0 in
22:15 2.1 °F -2.1 °F 1030.7 in Calm   1.6 mph 74 % 0.0 in
22:16 4.9 °F -0.3 °F 1032.1 in ENE 2.6 mph   69 % 0.0 in
22:21 4.7 °F -0.5 °F 1032.1 in Calm     69 % 0.0 in
22:25 2.0 °F -2.2 °F 1030.7 in Calm     74 % 0.0 in
22:26 4.7 °F -0.3 °F 1032.1 in ENE 2.3 mph   70 % 0.0 in
22:31 4.6 °F -0.4 °F 1032.1 in Calm     70 % 0.0 in
22:35 1.8 °F -2.3 °F 1030.7 in SW 1.6 mph 3.2 mph 74 % 0.0 in
22:36 4.5 °F -0.5 °F 1032.1 in Calm     70 % 0.0 in
22:41 4.5 °F -0.5 °F 1032.1 in East 3.5 mph 3.5 mph 70 % 0.0 in
22:45 1.8 °F -2.3 °F 1030.7 in NE 1.6 mph 3.2 mph 74 % 0.0 in
22:46 4.4 °F -0.6 °F 1032.1 in ENE 2.6 mph 2.6 mph 70 % 0.0 in
22:51 4.3 °F -0.5 °F 1032.1 in East 3.7 mph 3.7 mph 71 % 0.0 in
22:55 1.7 °F -2.3 °F 1030.7 in NE 1.6 mph 3.2 mph 75 % 0.0 in
22:56 4.1 °F -0.9 °F 1032.1 in East 1.9 mph   70 % 0.0 in
23:01 4.0 °F -1.0 °F 1032.1 in Calm     70 % 0.0 in
23:02 4.0 °F -1.0 °F 1032.1 in Calm     70 % 0.0 in
23:05 1.7 °F -2.3 °F 1030.7 in Calm     75 % 0.0 in
23:07 3.8 °F -1.2 °F 1032.1 in Calm     70 % 0.0 in
23:12 3.7 °F -1.3 °F 1032.1 in Calm     70 % 0.0 in
23:15 1.5 °F -2.4 °F 1030.7 in Calm     75 % 0.0 in
23:17 3.6 °F -1.4 °F 1032.1 in Calm     70 % 0.0 in
23:22 3.5 °F -1.4 °F 1032.1 in Calm     70 % 0.0 in
23:25 1.4 °F -2.6 °F 1030.0 in Calm     75 % 0.0 in
23:27 3.4 °F -1.4 °F 1032.1 in Calm     71 % 0.0 in
23:32 3.4 °F -1.4 °F 1032.7 in Calm     71 % 0.0 in
23:35 1.5 °F -2.4 °F 1030.7 in Calm     75 % 0.0 in
23:37 3.4 °F -1.4 °F 1032.7 in Calm     71 % 0.0 in
23:42 3.4 °F -1.4 °F 1032.7 in Calm     71 % 0.0 in
23:45 1.4 °F -2.6 °F 1030.7 in SSW 1.6 mph 3.2 mph 75 % 0.0 in
23:47 3.3 °F -1.3 °F 1032.1 in Calm     72 % 0.0 in
23:52 3.2 °F -1.6 °F 1032.1 in North 1.9 mph   71 % 0.0 in
23:55 1.4 °F -2.6 °F 1030.7 in NW 1.6 mph 3.2 mph 75 % 0.0 in
23:57 3.2 °F -1.6 °F 1032.1 in NNE 3.7 mph 3.7 mph 71 % 0.0 in
Meteo Sesrovires
Elogis d' Weather Underground - 1.5 mb

Guio original per  Jim McMurry - jmcmurry@mwt.net Adaptat per a la plantilla per  Wim van der Kuil - Leuven-Template.eu

Trobareu la nostra informacio del temps tambe a:

Weather Underground

AWEKAS